Time,TemperatureF,DewpointF,PressureIn,WindDirection,WindDirectionDegrees,WindSpeedMPH,WindSpeedGustMPH,Humidity,HourlyPrecipIn,Conditions,Clouds,dailyrainin,SoftwareType,DateUTC
2013-08-31 00:13:00,67.0,-99.9,29.89,North,-999,18.0,20.0,-999,-99.99,,,-99.99,,2013-08-31 05:13:00,
2013-08-31 00:23:00,67.0,-99.9,29.89,North,-999,18.0,20.0,-999,-99.99,,,-99.99,,2013-08-31 05:23:00,
2013-08-31 00:43:00,67.0,-99.9,29.89,North,-999,13.0,18.0,-999,-99.99,,,-99.99,,2013-08-31 05:43:00,
2013-08-31 00:53:00,67.0,-99.9,29.89,North,-999,13.0,18.0,-999,-99.99,,,-99.99,,2013-08-31 05:53:00,
2013-08-31 01:22:00,67.0,-99.9,29.89,North,-999,16.0,18.0,-999,-99.99,,,-99.99,,2013-08-31 06:22:00,
2013-08-31 01:52:00,66.0,-99.9,29.89,North,-999,13.0,18.0,-999,-99.99,,,-99.99,,2013-08-31 06:52:00,
2013-08-31 02:22:00,66.0,-99.9,29.90,North,-999,13.0,16.0,-999,-99.99,,,-99.99,,2013-08-31 07:22:00,
2013-08-31 02:52:00,65.0,-99.9,29.90,North,-999,11.0,13.0,-999,-99.99,,,-99.99,,2013-08-31 07:52:00,
2013-08-31 03:22:00,65.0,-99.9,29.89,North,-999,13.0,16.0,-999,-99.99,,,-99.99,,2013-08-31 08:22:00,
2013-08-31 03:52:00,65.0,-99.9,29.88,North,-999,13.0,16.0,-999,-99.99,,,-99.99,,2013-08-31 08:52:00,
2013-08-31 04:23:00,65.0,-99.9,29.88,North,-999,13.0,16.0,-999,-99.99,,,-99.99,,2013-08-31 09:23:00,
2013-08-31 04:53:00,65.0,-99.9,29.89,North,-999,13.0,18.0,-999,-99.99,,,-99.99,,2013-08-31 09:53:00,
2013-08-31 05:24:00,65.0,-99.9,29.90,North,-999,9.0,13.0,-999,-99.99,,,-99.99,,2013-08-31 10:24:00,
2013-08-31 05:53:00,65.0,-99.9,29.90,North,-999,9.0,11.0,-999,-99.99,,,-99.99,,2013-08-31 10:53:00,
2013-08-31 06:22:00,65.0,-99.9,29.92,North,-999,9.0,13.0,-999,-99.99,,,-99.99,,2013-08-31 11:22:00,
2013-08-31 06:52:00,64.0,-99.9,29.92,North,-999,11.0,13.0,-999,-99.99,,,-99.99,,2013-08-31 11:52:00,
2013-08-31 07:22:00,64.0,-99.9,29.91,North,-999,9.0,11.0,-999,-99.99,,,-99.99,,2013-08-31 12:22:00,
2013-08-31 07:52:00,64.0,-99.9,29.90,North,-999,11.0,13.0,-999,-99.99,,,-99.99,,2013-08-31 12:52:00,
2013-08-31 08:22:00,64.0,-99.9,29.89,North,-999,11.0,16.0,-999,-99.99,,,-99.99,,2013-08-31 13:22:00,
2013-08-31 08:52:00,65.0,-99.9,29.89,North,-999,11.0,13.0,-999,-99.99,,,-99.99,,2013-08-31 13:52:00,
2013-08-31 09:22:00,65.0,-99.9,29.89,North,-999,13.0,16.0,-999,-99.99,,,-99.99,,2013-08-31 14:22:00,
2013-08-31 09:42:00,65.0,-99.9,29.90,North,-999,9.0,11.0,-999,-99.99,,,-99.99,,2013-08-31 14:42:00,
2013-08-31 09:52:00,65.0,-99.9,29.90,North,-999,9.0,11.0,-999,-99.99,,,-99.99,,2013-08-31 14:52:00,
2013-08-31 10:23:00,66.0,-99.9,29.89,North,-999,4.0,7.0,-999,-99.99,,,-99.99,,2013-08-31 15:23:00,
2013-08-31 10:45:00,66.0,-99.9,29.89,North,-999,7.0,9.0,-999,-99.99,,,-99.99,,2013-08-31 15:45:00,
2013-08-31 10:55:00,66.0,-99.9,29.89,North,-999,7.0,9.0,-999,-99.99,,,-99.99,,2013-08-31 15:55:00,
2013-08-31 11:25:00,67.0,-99.9,29.89,North,-999,7.0,9.0,-999,-99.99,,,-99.99,,2013-08-31 16:25:00,
2013-08-31 11:44:00,67.0,-99.9,29.90,North,-999,9.0,11.0,-999,-99.99,,,-99.99,,2013-08-31 16:44:00,
2013-08-31 11:53:00,67.0,-99.9,29.90,North,-999,9.0,11.0,-999,-99.99,,,-99.99,,2013-08-31 16:53:00,
2013-08-31 12:23:00,68.0,-99.9,29.91,North,-999,7.0,9.0,-999,-99.99,,,-99.99,,2013-08-31 17:23:00,
2013-08-31 12:43:00,68.0,-99.9,29.91,North,-999,9.0,9.0,-999,-99.99,,,-99.99,,2013-08-31 17:43:00,
2013-08-31 12:53:00,68.0,-99.9,29.91,North,-999,9.0,9.0,-999,-99.99,,,-99.99,,2013-08-31 17:53:00,
2013-08-31 13:13:00,68.0,-99.9,29.90,North,-999,7.0,9.0,-999,-99.99,,,-99.99,,2013-08-31 18:13:00,
2013-08-31 13:22:00,68.0,-99.9,29.90,North,-999,7.0,9.0,-999,-99.99,,,-99.99,,2013-08-31 18:22:00,
2013-08-31 13:52:00,68.0,-99.9,29.90,North,-999,2.0,4.0,-999,-99.99,,,-99.99,,2013-08-31 18:52:00,
2013-08-31 14:22:00,69.0,-99.9,29.90,North,-999,2.0,4.0,-999,-99.99,,,-99.99,,2013-08-31 19:22:00,
2013-08-31 14:42:00,69.0,-99.9,29.89,North,-999,2.0,4.0,-999,-99.99,,,-99.99,,2013-08-31 19:42:00,
2013-08-31 14:52:00,69.0,-99.9,29.89,North,-999,2.0,4.0,-999,-99.99,,,-99.99,,2013-08-31 19:52:00,
2013-08-31 15:12:00,69.0,-99.9,29.88,North,-999,2.0,4.0,-999,-99.99,,,-99.99,,2013-08-31 20:12:00,
2013-08-31 15:22:00,69.0,-99.9,29.88,North,-999,2.0,4.0,-999,-99.99,,,-99.99,,2013-08-31 20:22:00,
2013-08-31 15:43:00,70.0,-99.9,29.88,North,-999,4.0,4.0,-999,-99.99,,,-99.99,,2013-08-31 20:43:00,
2013-08-31 15:53:00,70.0,-99.9,29.88,North,-999,4.0,4.0,-999,-99.99,,,-99.99,,2013-08-31 20:53:00,
2013-08-31 16:22:00,71.0,-99.9,29.87,North,-999,7.0,7.0,-999,-99.99,,,-99.99,,2013-08-31 21:22:00,
2013-08-31 16:44:00,71.0,-99.9,29.86,North,-999,4.0,7.0,-999,-99.99,,,-99.99,,2013-08-31 21:44:00,
2013-08-31 16:54:00,71.0,-99.9,29.86,North,-999,4.0,7.0,-999,-99.99,,,-99.99,,2013-08-31 21:54:00,
2013-08-31 17:24:00,71.0,-99.9,29.85,North,-999,4.0,4.0,-999,-99.99,,,-99.99,,2013-08-31 22:24:00,
2013-08-31 17:44:00,71.0,-99.9,29.85,North,-999,4.0,4.0,-999,-99.99,,,-99.99,,2013-08-31 22:44:00,
2013-08-31 17:53:00,71.0,-99.9,29.85,North,-999,4.0,4.0,-999,-99.99,,,-99.99,,2013-08-31 22:53:00,
2013-08-31 18:23:00,71.0,-99.9,29.84,North,-999,4.0,4.0,-999,-99.99,,,-99.99,,2013-08-31 23:23:00,
2013-08-31 18:42:00,71.0,-99.9,29.83,North,-999,4.0,4.0,-999,-99.99,,,-99.99,,2013-08-31 23:42:00,
2013-08-31 18:52:00,71.0,-99.9,29.83,North,-999,4.0,4.0,-999,-99.99,,,-99.99,,2013-08-31 23:52:00,
2013-08-31 19:00:00,71.0,-99.9,29.82,North,-999,7.0,7.0,-999,-99.99,,,-99.99,,2013-09-01 00:00:00,
2013-08-31 19:11:00,71.0,-99.9,29.82,North,-999,4.0,7.0,-999,-99.99,,,-99.99,,2013-09-01 00:11:00,
2013-08-31 19:22:00,71.0,-99.9,29.82,North,-999,4.0,7.0,-999,-99.99,,,-99.99,,2013-09-01 00:22:00,
2013-08-31 19:42:00,71.0,-99.9,29.82,North,-999,7.0,7.0,-999,-99.99,,,-99.99,,2013-09-01 00:42:00,
2013-08-31 19:52:00,71.0,-99.9,29.82,North,-999,7.0,7.0,-999,-99.99,,,-99.99,,2013-09-01 00:52:00,
2013-08-31 20:22:00,71.0,-99.9,29.80,North,-999,7.0,7.0,-999,-99.99,,,-99.99,,2013-09-01 01:22:00,
2013-08-31 20:42:00,70.0,-99.9,29.83,North,-999,4.0,4.0,-999,-99.99,,,-99.99,,2013-09-01 01:42:00,
2013-08-31 20:52:00,70.0,-99.9,29.83,North,-999,4.0,4.0,-999,-99.99,,,-99.99,,2013-09-01 01:52:00,
2013-08-31 21:23:00,71.0,-99.9,29.86,North,-999,4.0,4.0,-999,-99.99,,,-99.99,,2013-09-01 02:23:00,
2013-08-31 21:53:00,71.0,-99.9,29.86,North,-999,4.0,7.0,-999,-99.99,,,-99.99,,2013-09-01 02:53:00,
2013-08-31 22:23:00,70.0,-99.9,29.86,North,-999,7.0,9.0,-999,-99.99,,,-99.99,,2013-09-01 03:23:00,
2013-08-31 22:45:00,69.0,-99.9,29.86,North,-999,9.0,11.0,-999,-99.99,,,-99.99,,2013-09-01 03:45:00,
2013-08-31 22:54:00,69.0,-99.9,29.86,North,-999,9.0,11.0,-999,-99.99,,,-99.99,,2013-09-01 03:54:00,
2013-08-31 23:03:00,-999.0,-99.9,-100.00,North,-999,11.0,13.0,-999,-99.99,,,-99.99,,2013-09-01 04:03:00,
2013-08-31 23:25:00,69.0,-99.9,29.86,North,-999,11.0,13.0,-999,-99.99,,,-99.99,,2013-09-01 04:25:00,
2013-08-31 23:54:00,69.0,-99.9,29.84,North,-999,11.0,13.0,-999,-99.99,,,-99.99,,2013-09-01 04:54:00,